Dillon, SC (29536)

2:07 PM EDT on July 23, 2016 (GMT -0400)
Marion County | | Change Station

Elev 92 ft 34.18 °N, 79.33 °W | Updated 12 minutes ago

Mostly Cloudy
Mostly Cloudy
91 °F
Feels Like 100 °F
N
6
Wind Variable Wind from West

Today
High -- | Low -- °F
--% Chance of Precip.
Yesterday
High -- | Low -- °F
Precip. -- in
Pressure 30.00 in
Visibility 10.0 miles
Clouds Mostly Cloudy 3900 ft
Mostly Cloudy 4800 ft
Mostly Cloudy 6000 ft
Heat Index 100 °F
Dew Point 73 °F
Humidity 55%
Rainfall 0.00 in
Snow Depth Not available.
6:22 AM 8:25 PM
Waning Gibbous, 83% visible
METAR KMAO 231755Z AUTO 27005KT 10SM BKN039 BKN048 BKN060 33/23 A3000 RMK AO2
Pressure 30.00 in
Visibility 10.0 miles
Clouds Mostly Cloudy 3900 ft
Mostly Cloudy 4800 ft
Mostly Cloudy 6000 ft
Heat Index 100 °F
Dew Point 73 °F
Humidity 55%
Rainfall 0.00 in
Snow Depth Not available.
6:22 AM 8:25 PM
Waning Gibbous, 83% visible
METAR KMAO 231755Z AUTO 27005KT 10SM BKN039 BKN048 BKN060 33/23 A3000 RMK AO2

10-Day Weather Forecast

Almanac

Astronomy

Jul. 23, 2016 Rise Set
Actual Time
Civil Twilight
Nautical Twilight
Astronomical Twilight
Moon
Length of Visible Light
Length of Day
Tomorrow will be .
, % of the Moon is Illuminated

Today's Extremes

State Highs State Lows

Community

WunderPhotos

Upload Photos

1,926,878 photos uploaded!

WunderBlog® & News

Nearby

Air Quality

  Air Quality AQ Index Pollutant
Not available.

Snow Depth

Station Depth Elevation

Earthquake Activity

City Distance Mag. Time & Date
Minimum magnitude displayed is 2.5.

Coastal Water Temperatures

Place Temperature

Stations

Nearby Weather Stations

Station Location Temp. Windchill Dew Point Humidity Wind Precip. Elev Updated Type
                   

Watches & Warnings

There are currently no watches in effect.